Time;durP1;ratioP1;P1;durP2;ratioP2;P2;SDS_P1;SDS_P2;PMS_P1;PMS_P2;Temp;Humidity;BMP_temperature;BMP_pressure;BME280_temperature;BME280_humidity;BME280_pressure;Samples;Min_cycle;Max_cycle;Signal;HPM_P1;HPM_P2
2023/09/01 00:00:22;;;;;;;0.50;0.40;;;13.20;99.90;;;;;;5032097;28;20474;-80
2023/09/01 00:02:49;;;;;;;0.50;0.40;;;13.10;99.90;;;;;;5032294;28;20475;-80
2023/09/01 00:05:15;;;;;;;0.50;0.40;;;13.20;99.90;;;;;;5032067;28;20491;-79
2023/09/01 00:07:42;;;;;;;0.50;0.40;;;13.20;99.90;;;;;;5031404;28;20441;-80
2023/09/01 00:10:10;;;;;;;0.50;0.40;;;13.10;99.90;;;;;;5032067;28;20556;-79
2023/09/01 00:12:38;;;;;;;0.50;0.40;;;13.10;99.90;;;;;;5031956;28;20442;-80
2023/09/01 00:15:06;;;;;;;0.50;0.40;;;13.10;99.90;;;;;;5032105;28;20444;-80
2023/09/01 00:17:32;;;;;;;0.50;0.40;;;13.10;99.90;;;;;;5032063;28;20449;-80
2023/09/01 00:19:59;;;;;;;0.50;0.40;;;13.10;99.90;;;;;;5031869;28;20473;-79
2023/09/01 00:22:26;;;;;;;0.50;0.40;;;13.10;99.90;;;;;;5031868;28;20522;-78
2023/09/01 00:24:53;;;;;;;0.50;0.40;;;13.10;99.90;;;;;;5031933;28;20451;-78
2023/09/01 00:27:20;;;;;;;3.50;3.30;;;13.10;99.90;;;;;;5031937;28;20530;-80
2023/09/01 00:29:48;;;;;;;0.50;0.40;;;13.10;99.90;;;;;;5031620;28;20467;-80
2023/09/01 00:32:14;;;;;;;0.50;0.40;;;13.00;99.90;;;;;;5033591;28;20436;-80
2023/09/01 00:34:41;;;;;;;0.50;0.40;;;13.00;99.90;;;;;;5034159;28;20518;-79
2023/09/01 00:37:08;;;;;;;0.50;0.40;;;12.90;99.90;;;;;;5033238;28;20554;-80
2023/09/01 00:39:35;;;;;;;0.50;0.40;;;12.90;99.90;;;;;;5032791;28;20476;-78
2023/09/01 00:42:02;;;;;;;0.50;0.40;;;12.90;99.90;;;;;;5032924;28;20487;-80
2023/09/01 00:44:28;;;;;;;0.50;0.40;;;12.90;99.90;;;;;;5031932;28;20467;-80
2023/09/01 00:46:57;;;;;;;0.50;0.40;;;12.90;99.90;;;;;;5031795;28;21099;-80
2023/09/01 00:49:23;;;;;;;0.50;0.40;;;12.90;99.90;;;;;;5031465;28;20809;-79
2023/09/01 00:51:50;;;;;;;0.50;0.40;;;12.90;99.90;;;;;;5031850;28;20431;-80
2023/09/01 00:54:17;;;;;;;0.50;0.40;;;12.80;99.90;;;;;;5031711;28;20939;-79
2023/09/01 00:56:45;;;;;;;0.50;0.40;;;12.80;99.90;;;;;;5031778;28;20540;-78
2023/09/01 00:59:14;;;;;;;0.50;0.40;;;12.80;99.90;;;;;;5031153;28;20488;-80
2023/09/01 01:01:44;;;;;;;0.50;0.40;;;12.70;99.90;;;;;;5031383;28;20884;-80
2023/09/01 01:04:14;;;;;;;0.50;0.40;;;12.70;99.90;;;;;;5031881;28;20531;-80
2023/09/01 01:06:50;;;;;;;0.50;0.40;;;12.70;99.90;;;;;;5031462;28;20971;-80
2023/09/01 01:09:25;;;;;;;0.60;0.60;;;12.70;99.90;;;;;;5031283;28;20463;-80
2023/09/01 01:11:59;;;;;;;0.50;0.40;;;12.80;99.90;;;;;;5031336;28;20969;-80
2023/09/01 01:14:45;;;;;;;0.50;0.40;;;12.80;99.90;;;;;;5031678;28;20982;-80
2023/09/01 01:17:13;;;;;;;0.50;0.40;;;12.80;99.90;;;;;;5031460;28;20528;-80
2023/09/01 01:19:50;;;;;;;0.50;0.40;;;12.70;99.90;;;;;;5034682;28;20458;-80
2023/09/01 01:22:24;;;;;;;0.50;0.40;;;12.70;99.90;;;;;;5035054;28;20848;-80
2023/09/01 01:24:52;;;;;;;0.50;0.40;;;12.80;99.90;;;;;;5035273;28;20450;-79
2023/09/01 01:27:19;;;;;;;0.50;0.40;;;12.80;99.90;;;;;;5035920;28;20538;-80
2023/09/01 01:29:47;;;;;;;0.50;0.40;;;12.80;99.90;;;;;;5034722;28;20486;-80
2023/09/01 01:32:14;;;;;;;0.50;0.40;;;12.90;99.90;;;;;;5034994;28;20467;-80
2023/09/01 01:34:46;;;;;;;0.50;0.40;;;12.90;99.90;;;;;;5034848;28;20434;-78
2023/09/01 01:37:25;;;;;;;0.50;0.40;;;12.90;99.90;;;;;;5035200;28;20441;-80
2023/09/01 01:39:56;;;;;;;0.50;0.40;;;12.90;99.90;;;;;;5037511;28;20558;-81
2023/09/01 01:42:24;;;;;;;0.50;0.40;;;12.90;99.90;;;;;;5036925;28;21110;-82
2023/09/01 01:44:53;;;;;;;0.50;0.40;;;13.00;99.90;;;;;;5037073;28;20436;-80
2023/09/01 01:47:22;;;;;;;0.50;0.40;;;13.00;99.90;;;;;;5037998;28;20435;-81
2023/09/01 01:49:49;;;;;;;0.50;0.40;;;13.00;99.90;;;;;;5036640;28;21896;-80
2023/09/01 01:52:16;;;;;;;0.50;0.40;;;13.00;99.90;;;;;;5037208;28;20447;-80
2023/09/01 01:54:42;;;;;;;0.50;0.40;;;13.00;99.90;;;;;;5037377;28;20922;-79
2023/09/01 01:57:14;;;;;;;0.50;0.40;;;13.00;99.90;;;;;;5036803;28;20440;-80
2023/09/01 01:59:41;;;;;;;0.50;0.40;;;13.00;99.90;;;;;;5036519;28;20515;-81
2023/09/01 02:02:08;;;;;;;0.50;0.40;;;12.90;99.90;;;;;;5036881;28;20560;-79
2023/09/01 02:04:35;;;;;;;0.50;0.40;;;12.90;99.90;;;;;;5036937;28;20751;-81
2023/09/01 02:07:05;;;;;;;0.50;0.40;;;12.90;99.90;;;;;;5036759;28;20528;-81
2023/09/01 02:09:32;;;;;;;0.50;0.40;;;12.80;99.90;;;;;;5036057;28;20453;-81
2023/09/01 02:11:59;;;;;;;0.50;0.40;;;12.80;99.90;;;;;;5036642;28;20443;-80
2023/09/01 02:14:27;;;;;;;0.50;0.40;;;12.80;99.90;;;;;;5037003;28;20815;-81
2023/09/01 02:16:54;;;;;;;0.50;0.40;;;12.70;99.90;;;;;;5036667;28;20796;-80
2023/09/01 02:19:21;;;;;;;0.50;0.40;;;12.70;99.90;;;;;;5036020;28;20469;-81
2023/09/01 02:21:48;;;;;;;0.50;0.40;;;12.70;99.90;;;;;;5035914;28;20444;-80
2023/09/01 02:24:15;;;;;;;0.50;0.40;;;12.70;99.90;;;;;;5035641;28;20582;-80
2023/09/01 02:26:42;;;;;;;0.50;0.40;;;12.60;99.90;;;;;;5034100;28;20441;-80
2023/09/01 02:29:09;;;;;;;0.50;0.40;;;12.60;99.90;;;;;;5033780;28;20552;-80
2023/09/01 02:31:37;;;;;;;0.50;0.40;;;12.60;99.90;;;;;;5033942;28;20437;-80
2023/09/01 02:34:05;;;;;;;0.50;0.40;;;12.60;99.90;;;;;;5034786;28;20444;-80
2023/09/01 02:36:34;;;;;;;0.50;0.40;;;12.60;99.90;;;;;;5036743;28;20439;-81
2023/09/01 02:39:04;;;;;;;0.50;0.40;;;12.60;99.90;;;;;;5035196;28;20487;-80
2023/09/01 02:41:31;;;;;;;0.50;0.40;;;12.60;99.90;;;;;;5035329;28;20439;-81
2023/09/01 02:43:58;;;;;;;0.50;0.40;;;12.60;99.90;;;;;;5034990;28;20902;-80
2023/09/01 02:46:25;;;;;;;0.50;0.40;;;12.70;99.90;;;;;;5035097;28;20540;-80
2023/09/01 02:48:53;;;;;;;0.50;0.40;;;12.70;99.90;;;;;;5034370;28;20439;-81
2023/09/01 02:51:20;;;;;;;0.50;0.40;;;12.70;99.90;;;;;;5034395;28;20446;-80
2023/09/01 02:53:48;;;;;;;0.50;0.40;;;12.70;99.90;;;;;;5033866;28;20474;-80
2023/09/01 02:56:14;;;;;;;0.50;0.40;;;12.80;99.90;;;;;;5033844;28;20435;-80
2023/09/01 02:58:41;;;;;;;0.50;0.40;;;12.80;99.90;;;;;;5033336;28;20540;-78
2023/09/01 03:01:09;;;;;;;0.50;0.40;;;12.80;99.90;;;;;;5033405;28;20522;-80
2023/09/01 03:03:36;;;;;;;0.50;0.40;;;12.90;99.90;;;;;;5033249;28;20475;-79
2023/09/01 03:06:08;;;;;;;0.50;0.40;;;12.90;99.90;;;;;;5033181;28;20432;-80
2023/09/01 03:08:35;;;;;;;0.50;0.40;;;12.90;99.90;;;;;;5032971;28;20935;-79
2023/09/01 03:11:03;;;;;;;0.50;0.40;;;13.00;99.90;;;;;;5016531;28;20925;-80
2023/09/01 03:13:30;;;;;;;0.50;0.40;;;13.00;99.90;;;;;;5033285;28;20490;-80
2023/09/01 03:16:04;;;;;;;0.50;0.40;;;13.10;99.90;;;;;;5033088;28;20449;-80
2023/09/01 03:18:30;;;;;;;0.50;0.40;;;13.10;99.90;;;;;;5032754;28;20442;-80
2023/09/01 03:21:08;;;;;;;0.50;0.40;;;13.10;99.90;;;;;;5032399;28;20840;-79
2023/09/01 03:23:36;;;;;;;0.50;0.40;;;13.10;99.90;;;;;;5033191;28;20488;-80
2023/09/01 03:26:05;;;;;;;0.50;0.40;;;13.20;99.90;;;;;;5033023;28;20501;-80
2023/09/01 03:28:32;;;;;;;0.50;0.40;;;13.20;99.90;;;;;;5032977;28;20449;-80
2023/09/01 03:30:59;;;;;;;0.50;0.40;;;13.30;99.90;;;;;;5032682;28;20471;-79
2023/09/01 03:33:27;;;;;;;0.50;0.40;;;13.30;99.90;;;;;;5032553;28;20514;-80
2023/09/01 03:35:54;;;;;;;0.50;0.40;;;13.30;99.90;;;;;;5032924;28;20862;-80
2023/09/01 03:38:21;;;;;;;0.50;0.40;;;13.40;99.90;;;;;;5032435;28;20440;-80
2023/09/01 03:40:49;;;;;;;0.50;0.40;;;13.40;99.90;;;;;;5032162;28;20461;-81
2023/09/01 03:43:16;;;;;;;0.50;0.40;;;13.40;99.90;;;;;;5031982;28;20471;-81
2023/09/01 03:45:44;;;;;;;0.50;0.40;;;13.50;99.90;;;;;;5032406;28;20516;-81
2023/09/01 03:48:11;;;;;;;0.50;0.40;;;13.50;99.90;;;;;;5033633;28;20448;-81
2023/09/01 03:50:38;;;;;;;0.50;0.40;;;13.50;99.90;;;;;;5033552;28;20970;-78
2023/09/01 03:53:04;;;;;;;0.50;0.40;;;13.50;99.90;;;;;;5034270;28;20790;-81
2023/09/01 03:55:32;;;;;;;0.50;0.40;;;13.60;99.90;;;;;;5032704;28;20456;-80
2023/09/01 03:58:00;;;;;;;0.50;0.40;;;13.60;99.90;;;;;;5032396;28;20443;-80
2023/09/01 04:00:27;;;;;;;0.50;0.40;;;13.60;99.90;;;;;;5032157;28;20468;-80
2023/09/01 04:02:54;;;;;;;0.50;0.40;;;13.60;99.90;;;;;;5031920;28;20552;-80
2023/09/01 04:05:21;;;;;;;0.50;0.40;;;13.40;99.90;;;;;;5032716;28;20492;-80
2023/09/01 04:07:48;;;;;;;0.50;0.40;;;13.40;99.90;;;;;;5032032;28;20520;-78
2023/09/01 04:10:15;;;;;;;0.90;0.90;;;13.30;99.90;;;;;;5031922;28;20469;-79
2023/09/01 04:12:42;;;;;;;0.50;0.40;;;13.30;99.90;;;;;;5032285;28;20889;-79
2023/09/01 04:15:11;;;;;;;0.50;0.40;;;13.20;99.90;;;;;;5031923;28;20442;-82
2023/09/01 04:17:38;;;;;;;0.50;0.40;;;13.20;99.90;;;;;;5032278;28;20448;-79
2023/09/01 04:20:09;;;;;;;0.50;0.40;;;13.10;99.90;;;;;;5031407;28;20542;-80
2023/09/01 04:22:36;;;;;;;0.50;0.40;;;13.10;99.90;;;;;;5032191;28;20435;-79
2023/09/01 04:25:04;;;;;;;0.50;0.40;;;13.10;99.90;;;;;;5031966;28;20444;-79
2023/09/01 04:27:31;;;;;;;0.50;0.40;;;13.10;99.90;;;;;;5031846;28;20445;-80
2023/09/01 04:29:58;;;;;;;0.50;0.40;;;13.10;99.90;;;;;;5031454;28;21191;-79
2023/09/01 04:32:26;;;;;;;0.50;0.40;;;13.10;99.90;;;;;;5032348;28;20536;-80
2023/09/01 04:34:53;;;;;;;0.50;0.40;;;13.00;99.90;;;;;;5032395;28;20527;-80
2023/09/01 04:37:21;;;;;;;0.50;0.40;;;13.10;99.90;;;;;;5032708;28;20518;-80
2023/09/01 04:39:47;;;;;;;0.50;0.40;;;13.10;99.90;;;;;;5033334;28;20561;-80
2023/09/01 04:42:14;;;;;;;0.50;0.40;;;13.10;99.90;;;;;;5030800;28;20438;-80
2023/09/01 04:44:41;;;;;;;0.50;0.40;;;13.10;99.90;;;;;;5012027;28;20484;-80
2023/09/01 04:47:08;;;;;;;0.50;0.40;;;13.10;99.90;;;;;;5018097;28;20940;-80
2023/09/01 04:49:36;;;;;;;0.50;0.40;;;13.10;99.90;;;;;;5023288;28;20462;-80
2023/09/01 04:52:04;;;;;;;0.50;0.40;;;13.20;99.90;;;;;;5024981;28;20442;-80
2023/09/01 04:54:30;;;;;;;0.50;0.40;;;13.20;99.90;;;;;;5032420;28;20523;-79
2023/09/01 04:56:57;;;;;;;0.50;0.40;;;13.30;99.90;;;;;;5028280;28;20530;-80
2023/09/01 04:59:24;;;;;;;0.50;0.40;;;13.30;99.90;;;;;;5030014;28;20455;-81
2023/09/01 05:01:51;;;;;;;0.50;0.40;;;13.30;99.90;;;;;;5030267;28;20440;-79
2023/09/01 05:04:18;;;;;;;0.50;0.40;;;13.40;99.90;;;;;;5027161;28;20516;-80
2023/09/01 05:06:46;;;;;;;0.50;0.40;;;13.40;99.90;;;;;;5016304;28;20464;-82
2023/09/01 05:09:13;;;;;;;0.50;0.40;;;13.50;99.90;;;;;;5031719;28;20528;-81
2023/09/01 05:11:39;;;;;;;0.50;0.40;;;13.50;99.90;;;;;;5028746;28;20813;-80
2023/09/01 05:14:06;;;;;;;0.50;0.40;;;13.50;99.90;;;;;;5027082;28;20444;-81
2023/09/01 05:16:33;;;;;;;0.50;0.40;;;13.60;99.90;;;;;;5029159;28;20432;-80
2023/09/01 05:19:00;;;;;;;0.50;0.40;;;13.60;99.90;;;;;;5030893;28;20910;-81
2023/09/01 05:21:27;;;;;;;0.50;0.33;;;13.60;99.90;;;;;;5032826;28;20532;-80
2023/09/01 05:23:55;;;;;;;0.50;0.40;;;13.70;99.90;;;;;;5031787;28;20475;-81
2023/09/01 05:26:22;;;;;;;0.50;0.40;;;13.70;99.90;;;;;;5032712;28;20792;-82
2023/09/01 05:28:48;;;;;;;0.50;0.40;;;13.80;99.90;;;;;;5025461;28;20469;-82
2023/09/01 05:31:15;;;;;;;0.50;0.40;;;13.90;99.90;;;;;;5033236;28;20516;-83
2023/09/01 05:33:42;;;;;;;0.50;0.40;;;14.00;99.90;;;;;;5033868;28;20508;-80
2023/09/01 05:36:09;;;;;;;0.50;0.40;;;14.10;99.90;;;;;;5031750;28;20529;-80
2023/09/01 05:38:36;;;;;;;0.50;0.30;;;14.20;99.90;;;;;;5030587;28;20458;-79
2023/09/01 05:41:05;;;;;;;0.50;0.40;;;14.30;99.90;;;;;;5030874;28;20508;-81
2023/09/01 05:43:32;;;;;;;0.50;0.30;;;14.40;99.90;;;;;;5030507;28;20475;-82
2023/09/01 05:45:59;;;;;;;0.50;0.40;;;14.50;99.90;;;;;;5034699;28;20441;-82
2023/09/01 05:48:26;;;;;;;0.50;0.40;;;14.60;99.90;;;;;;5038817;28;20447;-82
2023/09/01 05:50:53;;;;;;;0.50;0.37;;;14.60;99.90;;;;;;5032587;28;20466;-82
2023/09/01 05:53:20;;;;;;;0.50;0.40;;;14.70;99.90;;;;;;5013792;28;20437;-82
2023/09/01 05:55:46;;;;;;;0.50;0.40;;;14.70;99.90;;;;;;5029005;28;20440;-81
2023/09/01 05:58:15;;;;;;;0.50;0.40;;;14.70;99.90;;;;;;5032921;28;20440;-82
2023/09/01 06:00:42;;;;;;;0.50;0.40;;;14.70;99.90;;;;;;5031531;28;20456;-82
2023/09/01 06:03:08;;;;;;;0.50;0.40;;;14.80;99.90;;;;;;5031669;28;20540;-81
2023/09/01 06:05:35;;;;;;;0.50;0.40;;;14.90;99.90;;;;;;5031862;28;20447;-81
2023/09/01 06:08:02;;;;;;;0.50;0.40;;;15.00;99.90;;;;;;5030694;28;20444;-81
2023/09/01 06:10:29;;;;;;;0.50;0.40;;;15.20;99.90;;;;;;5033047;28;20481;-81
2023/09/01 06:12:56;;;;;;;0.50;0.33;;;15.40;99.90;;;;;;5034574;28;20463;-81
2023/09/01 06:15:24;;;;;;;0.50;0.30;;;15.60;99.90;;;;;;5033990;28;20454;-81
2023/09/01 06:17:51;;;;;;;0.50;0.40;;;15.90;99.90;;;;;;5032775;28;20526;-81
2023/09/01 06:20:18;;;;;;;0.50;0.40;;;16.00;99.90;;;;;;5032817;28;21025;-81
2023/09/01 06:22:45;;;;;;;0.50;0.40;;;16.20;99.90;;;;;;5027550;28;20440;-82
2023/09/01 06:25:12;;;;;;;0.50;0.40;;;16.20;99.90;;;;;;5031599;28;20573;-80
2023/09/01 06:27:38;;;;;;;0.50;0.40;;;16.30;99.90;;;;;;5034135;28;20480;-83
2023/09/01 06:30:06;;;;;;;0.50;0.33;;;16.30;99.90;;;;;;5031173;28;20462;-80
2023/09/01 06:32:35;;;;;;;0.50;0.40;;;16.20;99.90;;;;;;5027601;28;20523;-80
2023/09/01 06:35:02;;;;;;;0.50;0.30;;;16.10;99.90;;;;;;5034153;28;20531;-81
2023/09/01 06:37:29;;;;;;;0.50;0.40;;;16.10;99.90;;;;;;5034100;28;20431;-80
2023/09/01 06:39:55;;;;;;;0.50;0.30;;;16.20;99.90;;;;;;5040745;28;20534;-80
2023/09/01 06:42:22;;;;;;;0.50;0.33;;;16.20;99.90;;;;;;5040007;28;20539;-81
2023/09/01 06:44:49;;;;;;;0.50;0.30;;;16.20;99.90;;;;;;5035922;28;20476;-81
2023/09/01 06:47:16;;;;;;;0.50;0.40;;;16.30;99.90;;;;;;5034790;28;20531;-82
2023/09/01 06:49:44;;;;;;;0.50;0.40;;;16.30;99.90;;;;;;5035821;28;20550;-82
2023/09/01 06:52:13;;;;;;;0.50;0.40;;;16.30;99.90;;;;;;5035821;28;20543;-81
2023/09/01 06:54:40;;;;;;;0.50;0.40;;;16.40;99.90;;;;;;5036037;28;20836;-81
2023/09/01 06:57:06;;;;;;;0.50;0.30;;;16.40;99.90;;;;;;5035862;28;20460;-81
2023/09/01 06:59:33;;;;;;;0.50;0.30;;;16.40;99.90;;;;;;5035324;28;20535;-82
2023/09/01 07:02:00;;;;;;;0.60;0.50;;;16.50;99.90;;;;;;5035831;28;20437;-81
2023/09/01 07:04:27;;;;;;;0.50;0.30;;;16.60;99.90;;;;;;5035649;28;20562;-81
2023/09/01 07:06:55;;;;;;;0.50;0.40;;;16.60;99.90;;;;;;5035619;28;20451;-80
2023/09/01 07:09:22;;;;;;;0.50;0.33;;;16.60;99.90;;;;;;5035290;28;20911;-80
2023/09/01 07:11:49;;;;;;;0.50;0.40;;;16.70;99.90;;;;;;5030331;28;20475;-80
2023/09/01 07:14:16;;;;;;;0.50;0.40;;;16.70;99.90;;;;;;5016079;28;20511;-80
2023/09/01 07:16:42;;;;;;;0.50;0.30;;;16.80;99.90;;;;;;5030667;28;20531;-80
2023/09/01 07:19:09;;;;;;;0.50;0.33;;;16.80;99.90;;;;;;5029947;28;20464;-80
2023/09/01 07:21:36;;;;;;;0.50;0.40;;;17.00;99.90;;;;;;5029970;28;20487;-81
2023/09/01 07:24:05;;;;;;;0.50;0.30;;;17.00;99.90;;;;;;5034411;28;20476;-81
2023/09/01 07:26:31;;;;;;;0.50;0.40;;;16.90;99.90;;;;;;5035473;28;20541;-80
2023/09/01 07:28:58;;;;;;;0.50;0.30;;;16.70;99.90;;;;;;5035484;28;20464;-82
2023/09/01 07:31:25;;;;;;;0.50;0.40;;;16.80;99.90;;;;;;5035895;28;20451;-80
2023/09/01 07:33:52;;;;;;;0.50;0.30;;;16.70;99.90;;;;;;5036276;28;20447;-80
2023/09/01 07:36:21;;;;;;;0.50;0.40;;;16.80;99.90;;;;;;5035360;28;20441;-81
2023/09/01 07:38:48;;;;;;;0.50;0.40;;;16.80;99.90;;;;;;5035018;28;20458;-80
2023/09/01 07:41:16;;;;;;;0.50;0.40;;;17.00;99.90;;;;;;5035185;28;20535;-80
2023/09/01 07:43:43;;;;;;;0.50;0.40;;;17.20;99.90;;;;;;5035363;28;20455;-80
2023/09/01 07:46:10;;;;;;;0.50;0.40;;;17.20;99.90;;;;;;5035135;28;20440;-80
2023/09/01 07:48:37;;;;;;;0.50;0.30;;;17.10;99.90;;;;;;5035391;28;20951;-80
2023/09/01 07:51:04;;;;;;;0.50;0.40;;;17.10;99.90;;;;;;5035279;28;20440;-80
2023/09/01 07:53:31;;;;;;;0.50;0.30;;;17.10;99.90;;;;;;5035310;28;20480;-81
2023/09/01 07:55:58;;;;;;;0.50;0.30;;;17.20;99.90;;;;;;5035388;28;20432;-81
2023/09/01 07:58:26;;;;;;;0.50;0.37;;;17.20;99.90;;;;;;5035052;28;20473;-80
2023/09/01 08:00:53;;;;;;;0.50;0.40;;;17.20;99.90;;;;;;5036113;28;20464;-81
2023/09/01 08:03:20;;;;;;;0.50;0.33;;;17.20;99.90;;;;;;5034724;28;20963;-81
2023/09/01 08:05:46;;;;;;;0.50;0.40;;;17.40;99.90;;;;;;5034486;28;20479;-79
2023/09/01 08:08:13;;;;;;;0.50;0.30;;;17.50;99.90;;;;;;5035523;28;20449;-81
2023/09/01 08:10:41;;;;;;;3.17;0.90;;;17.60;99.90;;;;;;5034498;28;20463;-79
2023/09/01 08:13:08;;;;;;;0.70;0.70;;;17.70;99.90;;;;;;5035136;28;20532;-79
2023/09/01 08:15:36;;;;;;;0.50;0.30;;;17.40;99.90;;;;;;5033686;28;20451;-80
2023/09/01 08:18:04;;;;;;;0.50;0.40;;;17.20;99.90;;;;;;5033825;28;20545;-80
2023/09/01 08:20:32;;;;;;;0.60;0.50;;;17.20;99.90;;;;;;5033627;28;20451;-79
2023/09/01 08:22:58;;;;;;;0.50;0.40;;;17.00;99.90;;;;;;5033607;28;20435;-79
2023/09/01 08:25:25;;;;;;;0.50;0.50;;;16.90;99.90;;;;;;5033751;28;20487;-80
2023/09/01 08:27:52;;;;;;;0.50;0.40;;;16.80;99.90;;;;;;5033461;28;20444;-80
2023/09/01 08:30:19;;;;;;;0.50;0.40;;;16.80;99.90;;;;;;5034081;28;20537;-80
2023/09/01 08:32:47;;;;;;;0.50;0.40;;;16.90;99.90;;;;;;5034019;28;20434;-79
2023/09/01 08:35:14;;;;;;;0.50;0.33;;;17.00;99.90;;;;;;5033915;28;20435;-79
2023/09/01 08:37:41;;;;;;;0.50;0.40;;;17.10;99.90;;;;;;5035058;28;20495;-82
2023/09/01 08:40:10;;;;;;;0.50;0.40;;;17.20;99.90;;;;;;5035039;28;20555;-79
2023/09/01 08:42:38;;;;;;;0.50;0.40;;;17.20;99.90;;;;;;5024947;28;20505;-79
2023/09/01 08:45:06;;;;;;;0.50;0.40;;;17.10;99.90;;;;;;5038227;28;20565;-80
2023/09/01 08:47:41;;;;;;;0.50;0.40;;;17.20;99.90;;;;;;5034911;28;20505;-80
2023/09/01 08:50:10;;;;;;;0.50;0.30;;;17.30;99.90;;;;;;5035107;28;20554;-81
2023/09/01 08:52:38;;;;;;;0.50;0.40;;;17.30;99.90;;;;;;5019374;28;20527;-80
2023/09/01 08:55:05;;;;;;;0.50;0.40;;;17.30;99.90;;;;;;5034322;28;20463;-81
2023/09/01 08:57:32;;;;;;;0.50;0.40;;;17.30;99.90;;;;;;5034773;28;20552;-80
2023/09/01 08:59:59;;;;;;;0.50;0.30;;;17.20;99.90;;;;;;5033877;28;20835;-80
2023/09/01 09:02:26;;;;;;;0.50;0.40;;;17.20;99.90;;;;;;5034225;28;20460;-80
2023/09/01 09:04:53;;;;;;;0.50;0.30;;;17.20;99.90;;;;;;5033440;28;20571;-80
2023/09/01 09:07:22;;;;;;;0.50;0.30;;;17.10;99.90;;;;;;5034307;28;20814;-80
2023/09/01 09:09:56;;;;;;;0.50;0.33;;;17.00;99.90;;;;;;5035059;28;20539;-80
2023/09/01 09:12:26;;;;;;;0.50;0.40;;;16.90;99.90;;;;;;5035541;28;20490;-80
2023/09/01 09:14:53;;;;;;;0.50;0.30;;;16.80;99.90;;;;;;5036118;28;20436;-80
2023/09/01 09:17:23;;;;;;;0.50;0.40;;;16.70;99.90;;;;;;5035663;28;20823;-80
2023/09/01 09:19:54;;;;;;;0.50;0.40;;;16.70;99.90;;;;;;5035029;28;20460;-81
2023/09/01 09:22:22;;;;;;;0.50;0.40;;;16.60;99.90;;;;;;5034840;28;20468;-81
2023/09/01 09:24:49;;;;;;;0.50;0.40;;;16.60;99.90;;;;;;5034711;28;20482;-80
2023/09/01 09:27:17;;;;;;;0.50;0.30;;;16.60;99.90;;;;;;5034424;28;20566;-81
2023/09/01 09:29:45;;;;;;;0.50;0.40;;;16.50;99.90;;;;;;5034285;28;20455;-81
2023/09/01 09:32:22;;;;;;;0.50;0.40;;;16.50;99.90;;;;;;5035770;28;20448;-80
2023/09/01 09:35:07;;;;;;;0.50;0.40;;;16.40;99.90;;;;;;5036659;28;20496;-79
2023/09/01 09:37:36;;;;;;;0.50;0.40;;;16.50;99.90;;;;;;5026979;28;20481;-79
2023/09/01 09:40:15;;;;;;;0.50;0.40;;;16.40;99.90;;;;;;5035039;28;20552;-80
2023/09/01 09:42:43;;;;;;;0.50;0.30;;;16.40;99.90;;;;;;5030937;28;20450;-81
2023/09/01 09:45:27;;;;;;;0.50;0.40;;;16.30;99.90;;;;;;5042225;28;20467;-79
2023/09/01 09:47:54;;;;;;;0.50;0.40;;;16.30;99.90;;;;;;5024883;28;20446;-80
2023/09/01 09:50:21;;;;;;;0.50;0.40;;;16.30;99.90;;;;;;5038500;28;20487;-79
2023/09/01 09:52:55;;;;;;;0.50;0.40;;;16.30;99.90;;;;;;5037339;28;20526;-80
2023/09/01 09:55:25;;;;;;;0.50;0.40;;;16.30;99.90;;;;;;5037539;28;20523;-80
2023/09/01 09:57:52;;;;;;;0.50;0.30;;;16.40;99.90;;;;;;5037301;28;20498;-79
2023/09/01 10:00:22;;;;;;;0.50;0.40;;;16.40;99.90;;;;;;5036098;28;20460;-81
2023/09/01 10:02:56;;;;;;;0.50;0.40;;;16.40;99.90;;;;;;5036761;28;20577;-80
2023/09/01 10:05:23;;;;;;;0.50;0.40;;;16.40;99.90;;;;;;5036590;28;20479;-81
2023/09/01 10:07:53;;;;;;;0.50;0.30;;;16.40;99.90;;;;;;5035862;28;20526;-77
2023/09/01 10:10:20;;;;;;;0.50;0.30;;;16.30;99.90;;;;;;5035792;28;20460;-80
2023/09/01 10:12:48;;;;;;;0.50;0.50;;;16.30;99.90;;;;;;5021167;28;20439;-80
2023/09/01 10:15:16;;;;;;;0.50;0.40;;;16.30;99.90;;;;;;5038824;28;20473;-78
2023/09/01 10:17:44;;;;;;;0.50;0.40;;;16.30;99.90;;;;;;5035623;28;20449;-80
2023/09/01 10:20:12;;;;;;;0.50;0.30;;;16.20;99.90;;;;;;5035137;28;20463;-80
2023/09/01 10:22:39;;;;;;;0.50;0.40;;;16.30;99.90;;;;;;5036109;28;20810;-80
2023/09/01 10:25:12;;;;;;;0.50;0.40;;;16.30;99.90;;;;;;5035191;28;20479;-80
2023/09/01 10:27:39;;;;;;;0.50;0.40;;;16.30;99.90;;;;;;5036836;28;20519;-79
2023/09/01 10:30:27;;;;;;;0.50;0.30;;;16.30;99.90;;;;;;5037049;28;20465;-81
2023/09/01 10:33:09;;;;;;;0.50;0.40;;;16.30;99.90;;;;;;5037131;28;20436;-80
2023/09/01 10:35:42;;;;;;;0.50;0.30;;;16.30;99.90;;;;;;5037854;28;20460;-81
2023/09/01 10:38:11;;;;;;;0.50;0.30;;;16.40;99.90;;;;;;5038175;28;20946;-81
2023/09/01 10:40:48;;;;;;;0.50;0.40;;;16.50;99.90;;;;;;5035474;28;20534;-81
2023/09/01 10:43:44;;;;;;;0.50;0.30;;;16.40;99.90;;;;;;5037117;28;20440;-80
2023/09/01 10:46:27;;;;;;;0.50;0.40;;;16.30;99.90;;;;;;5038601;28;20512;-81
2023/09/01 10:48:56;;;;;;;0.50;0.40;;;16.20;99.90;;;;;;5029760;28;20950;-83
2023/09/01 10:51:26;;;;;;;0.50;0.40;;;16.30;99.90;;;;;;5034380;28;20444;-82
2023/09/01 10:53:55;;;;;;;0.50;0.30;;;16.20;99.90;;;;;;5027901;28;20450;-82
2023/09/01 10:56:24;;;;;;;0.50;0.30;;;16.20;99.90;;;;;;5033225;28;20444;-82
2023/09/01 10:58:53;;;;;;;0.60;0.60;;;16.20;99.90;;;;;;5025441;28;20437;-82
2023/09/01 11:01:35;;;;;;;0.50;0.30;;;16.30;99.90;;;;;;5035189;28;20519;-84
2023/09/01 11:04:31;;;;;;;0.50;0.40;;;16.30;99.90;;;;;;5031583;28;20789;-84
2023/09/01 11:07:07;;;;;;;0.50;0.40;;;16.30;99.90;;;;;;5023460;28;20479;-82
2023/09/01 11:09:56;;;;;;;0.50;0.40;;;16.30;99.90;;;;;;5031227;28;21003;-83
2023/09/01 11:12:32;;;;;;;0.50;0.40;;;16.40;99.90;;;;;;5035969;28;20468;-82
2023/09/01 11:15:01;;;;;;;0.50;0.30;;;16.50;99.90;;;;;;5024324;28;20436;-83
2023/09/01 11:17:53;;;;;;;0.50;0.30;;;16.70;99.90;;;;;;5033230;28;20463;-81
2023/09/01 11:20:29;;;;;;;0.50;0.40;;;16.60;99.90;;;;;;5041898;28;20456;-81
2023/09/01 11:23:01;;;;;;;0.50;0.40;;;16.70;99.90;;;;;;5026120;28;20504;-85
2023/09/01 11:25:28;;;;;;;0.50;0.40;;;16.80;99.90;;;;;;5036857;28;20480;-83
2023/09/01 11:27:56;;;;;;;0.50;0.30;;;17.00;99.90;;;;;;5035536;28;20879;-82
2023/09/01 11:30:23;;;;;;;0.50;0.40;;;17.00;99.90;;;;;;5034575;28;20981;-83
2023/09/01 11:32:51;;;;;;;0.70;0.50;;;17.10;99.90;;;;;;5035075;28;20739;-81
2023/09/01 11:35:25;;;;;;;0.50;0.40;;;17.20;99.90;;;;;;5033906;28;20859;-81
2023/09/01 11:37:53;;;;;;;0.50;0.30;;;17.20;99.90;;;;;;5035378;28;20519;-79
2023/09/01 11:40:21;;;;;;;0.50;0.30;;;17.20;99.90;;;;;;5034784;28;20474;-85
2023/09/01 11:42:49;;;;;;;0.50;0.30;;;17.30;99.90;;;;;;5036875;28;20464;-83
2023/09/01 11:45:17;;;;;;;0.50;0.30;;;17.30;99.90;;;;;;5035037;28;20473;-83
2023/09/01 11:47:44;;;;;;;0.50;0.30;;;17.30;99.90;;;;;;5035483;28;20507;-82
2023/09/01 11:50:14;;;;;;;0.50;0.40;;;17.30;99.90;;;;;;5038269;28;20459;-83
2023/09/01 11:52:54;;;;;;;0.50;0.40;;;17.40;99.90;;;;;;5045803;28;20437;-83
2023/09/01 11:55:31;;;;;;;0.50;0.40;;;17.40;99.90;;;;;;5036079;28;20486;-83
2023/09/01 11:57:58;;;;;;;0.50;0.30;;;17.40;99.90;;;;;;5045571;28;20438;-83
2023/09/01 12:00:38;;;;;;;0.50;0.30;;;17.40;99.90;;;;;;5046189;28;20515;-84
2023/09/01 12:03:06;;;;;;;0.50;0.30;;;17.50;99.90;;;;;;5036282;28;20527;-85
2023/09/01 12:05:33;;;;;;;0.50;0.30;;;17.60;99.90;;;;;;5031485;28;20555;-83
2023/09/01 12:08:01;;;;;;;0.50;0.30;;;17.60;99.90;;;;;;5034487;28;20528;-83
2023/09/01 12:10:29;;;;;;;0.50;0.40;;;17.60;99.90;;;;;;5038104;28;20460;-84
2023/09/01 12:13:07;;;;;;;0.50;0.30;;;17.70;99.90;;;;;;5029903;28;20514;-83
2023/09/01 12:15:52;;;;;;;0.50;0.30;;;17.60;99.90;;;;;;5031698;28;20460;-81
2023/09/01 12:18:34;;;;;;;0.50;0.40;;;17.70;99.90;;;;;;5034143;28;20430;-82
2023/09/01 12:21:01;;;;;;;0.50;0.40;;;17.70;99.90;;;;;;5026207;28;20828;-81
2023/09/01 12:23:29;;;;;;;0.50;0.30;;;17.80;99.90;;;;;;5026073;28;20495;-80
2023/09/01 12:25:56;;;;;;;0.50;0.30;;;17.90;99.90;;;;;;5017052;28;20557;-80
2023/09/01 12:28:26;;;;;;;0.50;0.30;;;18.00;99.90;;;;;;5033089;28;20441;-81
2023/09/01 12:30:54;;;;;;;0.50;0.40;;;18.00;99.90;;;;;;5027519;28;20816;-82
2023/09/01 12:33:21;;;;;;;0.50;0.30;;;18.00;99.90;;;;;;5033074;28;20447;-80
2023/09/01 12:35:48;;;;;;;0.50;0.30;;;18.00;99.90;;;;;;5030066;28;20470;-81
2023/09/01 12:38:15;;;;;;;0.50;0.30;;;18.10;99.90;;;;;;5015948;28;20528;-82
2023/09/01 12:40:42;;;;;;;0.50;0.30;;;18.20;99.90;;;;;;5024190;28;20462;-78
2023/09/01 12:43:08;;;;;;;0.50;0.40;;;18.30;99.90;;;;;;5026253;28;20876;-80
2023/09/01 12:45:35;;;;;;;1.00;0.90;;;18.30;99.90;;;;;;5027101;28;20476;-79
2023/09/01 12:48:04;;;;;;;0.60;0.40;;;18.30;99.90;;;;;;5027018;28;20795;-79
2023/09/01 12:50:31;;;;;;;0.50;0.30;;;18.20;99.90;;;;;;5016579;28;20455;-80
2023/09/01 12:52:58;;;;;;;0.50;0.30;;;18.20;99.90;;;;;;5027032;28;20514;-80
2023/09/01 12:55:26;;;;;;;0.50;0.30;;;18.30;99.90;;;;;;5027210;28;20481;-80